sensor_id;sensor_type;location;lat;lon;timestamp;P1;durP1;ratioP1;P2;durP2;ratioP2
67715;SDS011;54508;43.238;25.306;2022-12-11T00:00:39;6.72;;;3.30;;
67715;SDS011;54508;43.238;25.306;2022-12-11T00:03:05;5.60;;;3.03;;
67715;SDS011;54508;43.238;25.306;2022-12-11T00:05:30;4.68;;;2.72;;
67715;SDS011;54508;43.238;25.306;2022-12-11T00:07:56;4.83;;;3.07;;
67715;SDS011;54508;43.238;25.306;2022-12-11T00:10:23;5.32;;;2.65;;
67715;SDS011;54508;43.238;25.306;2022-12-11T00:12:48;4.15;;;2.83;;
67715;SDS011;54508;43.238;25.306;2022-12-11T00:15:14;4.00;;;2.40;;
67715;SDS011;54508;43.238;25.306;2022-12-11T00:17:39;5.10;;;2.57;;
67715;SDS011;54508;43.238;25.306;2022-12-11T00:20:05;4.57;;;2.70;;
67715;SDS011;54508;43.238;25.306;2022-12-11T00:22:32;4.67;;;2.63;;
67715;SDS011;54508;43.238;25.306;2022-12-11T00:24:57;4.70;;;2.70;;
67715;SDS011;54508;43.238;25.306;2022-12-11T00:27:23;4.87;;;2.43;;
67715;SDS011;54508;43.238;25.306;2022-12-11T00:29:48;5.57;;;2.53;;
67715;SDS011;54508;43.238;25.306;2022-12-11T00:32:14;6.50;;;2.57;;
67715;SDS011;54508;43.238;25.306;2022-12-11T00:34:39;3.87;;;2.30;;
67715;SDS011;54508;43.238;25.306;2022-12-11T00:37:05;5.03;;;2.80;;
67715;SDS011;54508;43.238;25.306;2022-12-11T00:39:30;4.88;;;2.35;;
67715;SDS011;54508;43.238;25.306;2022-12-11T00:41:56;4.90;;;2.47;;
67715;SDS011;54508;43.238;25.306;2022-12-11T00:44:22;4.90;;;2.60;;
67715;SDS011;54508;43.238;25.306;2022-12-11T00:46:48;5.63;;;2.57;;
67715;SDS011;54508;43.238;25.306;2022-12-11T00:49:13;3.80;;;2.58;;
67715;SDS011;54508;43.238;25.306;2022-12-11T00:51:39;4.40;;;2.63;;
67715;SDS011;54508;43.238;25.306;2022-12-11T00:54:04;6.10;;;2.70;;
67715;SDS011;54508;43.238;25.306;2022-12-11T00:56:30;2.95;;;2.42;;
67715;SDS011;54508;43.238;25.306;2022-12-11T00:58:56;5.20;;;2.60;;
67715;SDS011;54508;43.238;25.306;2022-12-11T01:01:22;5.40;;;2.67;;
67715;SDS011;54508;43.238;25.306;2022-12-11T01:03:49;4.77;;;2.70;;
67715;SDS011;54508;43.238;25.306;2022-12-11T01:06:17;3.90;;;2.60;;
67715;SDS011;54508;43.238;25.306;2022-12-11T01:08:44;4.28;;;2.60;;
67715;SDS011;54508;43.238;25.306;2022-12-11T01:11:11;3.78;;;2.38;;
67715;SDS011;54508;43.238;25.306;2022-12-11T01:13:38;7.43;;;3.17;;
67715;SDS011;54508;43.238;25.306;2022-12-11T01:16:05;5.73;;;3.33;;
67715;SDS011;54508;43.238;25.306;2022-12-11T01:18:31;6.47;;;2.83;;
67715;SDS011;54508;43.238;25.306;2022-12-11T01:20:57;7.13;;;3.30;;
67715;SDS011;54508;43.238;25.306;2022-12-11T01:23:22;6.47;;;2.65;;
67715;SDS011;54508;43.238;25.306;2022-12-11T01:25:48;5.03;;;2.97;;
67715;SDS011;54508;43.238;25.306;2022-12-11T01:28:13;6.47;;;3.20;;
67715;SDS011;54508;43.238;25.306;2022-12-11T01:30:40;5.37;;;3.17;;
67715;SDS011;54508;43.238;25.306;2022-12-11T01:33:07;5.70;;;3.08;;
67715;SDS011;54508;43.238;25.306;2022-12-11T01:35:33;4.57;;;3.17;;
67715;SDS011;54508;43.238;25.306;2022-12-11T01:37:58;4.72;;;3.70;;
67715;SDS011;54508;43.238;25.306;2022-12-11T01:40:24;6.03;;;3.10;;
67715;SDS011;54508;43.238;25.306;2022-12-11T01:42:49;6.30;;;3.50;;
67715;SDS011;54508;43.238;25.306;2022-12-11T01:47:49;6.50;;;3.57;;
67715;SDS011;54508;43.238;25.306;2022-12-11T01:50:17;5.65;;;3.00;;
67715;SDS011;54508;43.238;25.306;2022-12-11T01:52:43;4.00;;;2.80;;
67715;SDS011;54508;43.238;25.306;2022-12-11T01:55:10;4.85;;;2.70;;
67715;SDS011;54508;43.238;25.306;2022-12-11T01:57:36;8.30;;;3.05;;
67715;SDS011;54508;43.238;25.306;2022-12-11T02:00:04;7.97;;;2.97;;
67715;SDS011;54508;43.238;25.306;2022-12-11T02:02:30;3.35;;;2.80;;
67715;SDS011;54508;43.238;25.306;2022-12-11T02:04:57;6.07;;;3.05;;
67715;SDS011;54508;43.238;25.306;2022-12-11T02:07:23;4.78;;;3.20;;
67715;SDS011;54508;43.238;25.306;2022-12-11T02:09:49;4.90;;;3.00;;
67715;SDS011;54508;43.238;25.306;2022-12-11T02:12:19;7.13;;;3.30;;
67715;SDS011;54508;43.238;25.306;2022-12-11T02:17:36;3.80;;;2.83;;
67715;SDS011;54508;43.238;25.306;2022-12-11T02:34:09;4.97;;;3.00;;
67715;SDS011;54508;43.238;25.306;2022-12-11T02:36:40;5.93;;;3.42;;
67715;SDS011;54508;43.238;25.306;2022-12-11T02:39:08;8.80;;;3.38;;
67715;SDS011;54508;43.238;25.306;2022-12-11T02:41:36;6.03;;;3.20;;
67715;SDS011;54508;43.238;25.306;2022-12-11T02:44:03;5.47;;;3.00;;
67715;SDS011;54508;43.238;25.306;2022-12-11T02:46:29;7.85;;;3.20;;
67715;SDS011;54508;43.238;25.306;2022-12-11T02:48:56;6.97;;;2.90;;
67715;SDS011;54508;43.238;25.306;2022-12-11T02:51:32;5.50;;;3.00;;
67715;SDS011;54508;43.238;25.306;2022-12-11T02:54:00;6.00;;;2.83;;
67715;SDS011;54508;43.238;25.306;2022-12-11T02:56:35;6.28;;;3.22;;
67715;SDS011;54508;43.238;25.306;2022-12-11T02:59:25;8.45;;;3.05;;
67715;SDS011;54508;43.238;25.306;2022-12-11T03:01:54;5.15;;;3.30;;
67715;SDS011;54508;43.238;25.306;2022-12-11T03:04:20;8.23;;;3.58;;
67715;SDS011;54508;43.238;25.306;2022-12-11T03:06:49;3.35;;;3.05;;
67715;SDS011;54508;43.238;25.306;2022-12-11T03:09:18;7.95;;;3.22;;
67715;SDS011;54508;43.238;25.306;2022-12-11T03:11:44;8.27;;;3.58;;
67715;SDS011;54508;43.238;25.306;2022-12-11T03:14:09;4.17;;;2.97;;
67715;SDS011;54508;43.238;25.306;2022-12-11T03:16:36;6.97;;;3.53;;
67715;SDS011;54508;43.238;25.306;2022-12-11T03:22:09;5.75;;;2.95;;
67715;SDS011;54508;43.238;25.306;2022-12-11T03:30:05;3.95;;;3.00;;
67715;SDS011;54508;43.238;25.306;2022-12-11T03:32:37;4.97;;;2.50;;
67715;SDS011;54508;43.238;25.306;2022-12-11T03:37:33;5.13;;;3.47;;
67715;SDS011;54508;43.238;25.306;2022-12-11T03:40:02;4.50;;;3.22;;
67715;SDS011;54508;43.238;25.306;2022-12-11T03:42:30;8.38;;;2.90;;
67715;SDS011;54508;43.238;25.306;2022-12-11T03:44:56;8.40;;;2.70;;
67715;SDS011;54508;43.238;25.306;2022-12-11T03:47:23;4.05;;;2.65;;
67715;SDS011;54508;43.238;25.306;2022-12-11T03:49:50;4.78;;;2.80;;
67715;SDS011;54508;43.238;25.306;2022-12-11T03:52:16;7.90;;;3.00;;
67715;SDS011;54508;43.238;25.306;2022-12-11T03:54:42;6.43;;;3.70;;
67715;SDS011;54508;43.238;25.306;2022-12-11T03:57:10;5.28;;;2.97;;
67715;SDS011;54508;43.238;25.306;2022-12-11T03:59:39;5.82;;;3.08;;
67715;SDS011;54508;43.238;25.306;2022-12-11T04:02:04;6.73;;;2.90;;
67715;SDS011;54508;43.238;25.306;2022-12-11T04:04:37;4.15;;;2.90;;
67715;SDS011;54508;43.238;25.306;2022-12-11T04:07:04;3.35;;;2.72;;
67715;SDS011;54508;43.238;25.306;2022-12-11T04:09:30;5.03;;;2.67;;
67715;SDS011;54508;43.238;25.306;2022-12-11T04:11:55;6.63;;;2.77;;
67715;SDS011;54508;43.238;25.306;2022-12-11T04:14:21;7.50;;;2.80;;
67715;SDS011;54508;43.238;25.306;2022-12-11T04:17:04;7.80;;;3.05;;
67715;SDS011;54508;43.238;25.306;2022-12-11T04:19:30;3.57;;;2.60;;
67715;SDS011;54508;43.238;25.306;2022-12-11T04:22:15;6.15;;;3.03;;
67715;SDS011;54508;43.238;25.306;2022-12-11T04:25:00;7.35;;;3.20;;
67715;SDS011;54508;43.238;25.306;2022-12-11T04:27:26;4.20;;;3.40;;
67715;SDS011;54508;43.238;25.306;2022-12-11T04:30:12;5.88;;;3.15;;
67715;SDS011;54508;43.238;25.306;2022-12-11T04:32:40;4.93;;;2.92;;
67715;SDS011;54508;43.238;25.306;2022-12-11T04:35:06;4.32;;;2.88;;
67715;SDS011;54508;43.238;25.306;2022-12-11T04:37:32;5.55;;;2.50;;
67715;SDS011;54508;43.238;25.306;2022-12-11T04:39:58;4.87;;;2.60;;
67715;SDS011;54508;43.238;25.306;2022-12-11T04:42:23;8.63;;;2.60;;
67715;SDS011;54508;43.238;25.306;2022-12-11T04:44:49;4.55;;;2.53;;
67715;SDS011;54508;43.238;25.306;2022-12-11T04:47:15;4.40;;;2.80;;
67715;SDS011;54508;43.238;25.306;2022-12-11T04:49:42;4.05;;;2.45;;
67715;SDS011;54508;43.238;25.306;2022-12-11T04:52:07;5.20;;;2.53;;
67715;SDS011;54508;43.238;25.306;2022-12-11T04:54:33;6.50;;;2.37;;
67715;SDS011;54508;43.238;25.306;2022-12-11T04:56:58;3.95;;;2.42;;
67715;SDS011;54508;43.238;25.306;2022-12-11T04:59:24;3.37;;;2.17;;
67715;SDS011;54508;43.238;25.306;2022-12-11T05:01:49;6.57;;;2.90;;
67715;SDS011;54508;43.238;25.306;2022-12-11T05:04:15;4.47;;;2.50;;
67715;SDS011;54508;43.238;25.306;2022-12-11T05:06:40;5.68;;;2.30;;
67715;SDS011;54508;43.238;25.306;2022-12-11T05:09:09;3.00;;;2.30;;
67715;SDS011;54508;43.238;25.306;2022-12-11T05:11:36;4.47;;;2.60;;
67715;SDS011;54508;43.238;25.306;2022-12-11T05:14:01;3.33;;;2.10;;
67715;SDS011;54508;43.238;25.306;2022-12-11T05:16:27;2.60;;;2.28;;
67715;SDS011;54508;43.238;25.306;2022-12-11T05:18:53;3.60;;;2.47;;
67715;SDS011;54508;43.238;25.306;2022-12-11T05:21:18;5.47;;;2.70;;
67715;SDS011;54508;43.238;25.306;2022-12-11T05:23:44;3.40;;;2.38;;
67715;SDS011;54508;43.238;25.306;2022-12-11T05:26:14;4.13;;;2.50;;
67715;SDS011;54508;43.238;25.306;2022-12-11T05:28:41;3.65;;;2.30;;
67715;SDS011;54508;43.238;25.306;2022-12-11T05:31:14;3.87;;;2.50;;
67715;SDS011;54508;43.238;25.306;2022-12-11T05:33:41;3.35;;;2.50;;
67715;SDS011;54508;43.238;25.306;2022-12-11T05:36:07;4.97;;;2.30;;
67715;SDS011;54508;43.238;25.306;2022-12-11T05:38:33;5.03;;;2.65;;
67715;SDS011;54508;43.238;25.306;2022-12-11T05:41:00;3.60;;;2.33;;
67715;SDS011;54508;43.238;25.306;2022-12-11T05:43:28;4.10;;;2.40;;
67715;SDS011;54508;43.238;25.306;2022-12-11T05:45:55;3.80;;;2.00;;
67715;SDS011;54508;43.238;25.306;2022-12-11T05:48:20;4.25;;;3.17;;
67715;SDS011;54508;43.238;25.306;2022-12-11T05:50:59;5.07;;;2.45;;
67715;SDS011;54508;43.238;25.306;2022-12-11T05:53:25;4.37;;;2.20;;
67715;SDS011;54508;43.238;25.306;2022-12-11T05:55:51;3.45;;;2.38;;
67715;SDS011;54508;43.238;25.306;2022-12-11T05:58:17;2.78;;;2.15;;
67715;SDS011;54508;43.238;25.306;2022-12-11T06:00:43;3.70;;;1.80;;
67715;SDS011;54508;43.238;25.306;2022-12-11T06:03:08;3.72;;;2.35;;
67715;SDS011;54508;43.238;25.306;2022-12-11T06:05:37;2.75;;;2.08;;
67715;SDS011;54508;43.238;25.306;2022-12-11T06:08:06;2.92;;;2.10;;
67715;SDS011;54508;43.238;25.306;2022-12-11T06:10:32;3.53;;;2.13;;
67715;SDS011;54508;43.238;25.306;2022-12-11T06:12:57;4.73;;;2.27;;
67715;SDS011;54508;43.238;25.306;2022-12-11T06:15:23;5.20;;;2.40;;
67715;SDS011;54508;43.238;25.306;2022-12-11T06:17:48;2.87;;;2.20;;
67715;SDS011;54508;43.238;25.306;2022-12-11T06:20:14;4.93;;;2.40;;
67715;SDS011;54508;43.238;25.306;2022-12-11T06:22:40;3.28;;;2.08;;
67715;SDS011;54508;43.238;25.306;2022-12-11T06:25:05;2.33;;;1.80;;
67715;SDS011;54508;43.238;25.306;2022-12-11T06:27:31;3.72;;;2.30;;
67715;SDS011;54508;43.238;25.306;2022-12-11T06:29:56;4.20;;;2.30;;
67715;SDS011;54508;43.238;25.306;2022-12-11T06:32:22;2.67;;;1.90;;
67715;SDS011;54508;43.238;25.306;2022-12-11T06:34:47;3.93;;;2.40;;
67715;SDS011;54508;43.238;25.306;2022-12-11T06:37:13;2.15;;;1.88;;
67715;SDS011;54508;43.238;25.306;2022-12-11T06:39:38;4.43;;;2.10;;
67715;SDS011;54508;43.238;25.306;2022-12-11T06:42:04;3.03;;;1.90;;
67715;SDS011;54508;43.238;25.306;2022-12-11T06:44:29;4.20;;;2.50;;
67715;SDS011;54508;43.238;25.306;2022-12-11T06:46:55;4.00;;;2.20;;
67715;SDS011;54508;43.238;25.306;2022-12-11T06:49:20;4.17;;;2.13;;
67715;SDS011;54508;43.238;25.306;2022-12-11T06:51:46;2.93;;;2.13;;
67715;SDS011;54508;43.238;25.306;2022-12-11T06:54:11;4.15;;;1.92;;
67715;SDS011;54508;43.238;25.306;2022-12-11T06:56:37;3.80;;;2.00;;
67715;SDS011;54508;43.238;25.306;2022-12-11T06:59:02;3.07;;;2.17;;
67715;SDS011;54508;43.238;25.306;2022-12-11T07:01:28;2.93;;;2.17;;
67715;SDS011;54508;43.238;25.306;2022-12-11T07:03:54;2.92;;;1.83;;
67715;SDS011;54508;43.238;25.306;2022-12-11T07:06:20;3.28;;;2.08;;
67715;SDS011;54508;43.238;25.306;2022-12-11T07:08:46;4.07;;;2.47;;
67715;SDS011;54508;43.238;25.306;2022-12-11T07:11:13;2.45;;;1.98;;
67715;SDS011;54508;43.238;25.306;2022-12-11T07:13:39;3.50;;;2.30;;
67715;SDS011;54508;43.238;25.306;2022-12-11T07:16:09;3.90;;;1.83;;
67715;SDS011;54508;43.238;25.306;2022-12-11T07:18:36;4.60;;;2.47;;
67715;SDS011;54508;43.238;25.306;2022-12-11T07:21:03;3.10;;;2.40;;
67715;SDS011;54508;43.238;25.306;2022-12-11T07:23:29;4.53;;;2.67;;
67715;SDS011;54508;43.238;25.306;2022-12-11T07:25:55;3.15;;;2.10;;
67715;SDS011;54508;43.238;25.306;2022-12-11T07:28:21;3.17;;;2.30;;
67715;SDS011;54508;43.238;25.306;2022-12-11T07:30:47;3.43;;;2.03;;
67715;SDS011;54508;43.238;25.306;2022-12-11T07:33:13;3.85;;;2.70;;
67715;SDS011;54508;43.238;25.306;2022-12-11T07:35:38;2.00;;;1.80;;
67715;SDS011;54508;43.238;25.306;2022-12-11T07:38:04;6.47;;;2.17;;
67715;SDS011;54508;43.238;25.306;2022-12-11T07:40:29;2.47;;;1.60;;
67715;SDS011;54508;43.238;25.306;2022-12-11T07:42:55;4.70;;;1.90;;
67715;SDS011;54508;43.238;25.306;2022-12-11T07:45:21;2.70;;;1.98;;
67715;SDS011;54508;43.238;25.306;2022-12-11T07:47:46;3.30;;;1.77;;
67715;SDS011;54508;43.238;25.306;2022-12-11T07:50:12;3.80;;;1.90;;
67715;SDS011;54508;43.238;25.306;2022-12-11T07:52:37;3.43;;;1.80;;
67715;SDS011;54508;43.238;25.306;2022-12-11T07:55:03;5.75;;;2.40;;
67715;SDS011;54508;43.238;25.306;2022-12-11T07:57:29;2.27;;;1.87;;
67715;SDS011;54508;43.238;25.306;2022-12-11T07:59:54;2.95;;;2.05;;
67715;SDS011;54508;43.238;25.306;2022-12-11T08:02:20;2.87;;;2.00;;
67715;SDS011;54508;43.238;25.306;2022-12-11T08:04:46;2.80;;;1.67;;
67715;SDS011;54508;43.238;25.306;2022-12-11T08:07:11;3.10;;;1.67;;
67715;SDS011;54508;43.238;25.306;2022-12-11T08:09:37;3.93;;;2.13;;
67715;SDS011;54508;43.238;25.306;2022-12-11T08:12:02;2.58;;;2.03;;
67715;SDS011;54508;43.238;25.306;2022-12-11T08:14:28;2.97;;;2.10;;
67715;SDS011;54508;43.238;25.306;2022-12-11T08:16:53;2.07;;;1.50;;
67715;SDS011;54508;43.238;25.306;2022-12-11T08:19:19;3.13;;;2.00;;
67715;SDS011;54508;43.238;25.306;2022-12-11T08:21:45;3.27;;;2.10;;
67715;SDS011;54508;43.238;25.306;2022-12-11T08:24:10;2.95;;;2.10;;
67715;SDS011;54508;43.238;25.306;2022-12-11T08:26:36;2.50;;;1.90;;
67715;SDS011;54508;43.238;25.306;2022-12-11T08:29:02;3.43;;;1.97;;
67715;SDS011;54508;43.238;25.306;2022-12-11T08:31:27;4.80;;;2.20;;
67715;SDS011;54508;43.238;25.306;2022-12-11T08:33:54;3.17;;;1.80;;
67715;SDS011;54508;43.238;25.306;2022-12-11T08:36:20;2.78;;;2.03;;
67715;SDS011;54508;43.238;25.306;2022-12-11T08:38:47;3.38;;;2.30;;
67715;SDS011;54508;43.238;25.306;2022-12-11T08:41:13;2.88;;;1.90;;
67715;SDS011;54508;43.238;25.306;2022-12-11T08:43:41;3.27;;;1.83;;
67715;SDS011;54508;43.238;25.306;2022-12-11T08:46:07;3.08;;;1.75;;
67715;SDS011;54508;43.238;25.306;2022-12-11T08:48:33;2.65;;;2.00;;
67715;SDS011;54508;43.238;25.306;2022-12-11T08:50:59;3.60;;;2.30;;
67715;SDS011;54508;43.238;25.306;2022-12-11T08:53:26;3.08;;;2.17;;
67715;SDS011;54508;43.238;25.306;2022-12-11T08:55:53;3.08;;;1.90;;
67715;SDS011;54508;43.238;25.306;2022-12-11T08:58:19;2.13;;;1.80;;
67715;SDS011;54508;43.238;25.306;2022-12-11T09:00:44;2.85;;;2.00;;
67715;SDS011;54508;43.238;25.306;2022-12-11T09:03:10;3.47;;;1.70;;
67715;SDS011;54508;43.238;25.306;2022-12-11T09:05:36;3.40;;;2.07;;
67715;SDS011;54508;43.238;25.306;2022-12-11T09:08:02;2.97;;;1.95;;
67715;SDS011;54508;43.238;25.306;2022-12-11T09:10:28;3.83;;;2.53;;
67715;SDS011;54508;43.238;25.306;2022-12-11T09:12:53;4.07;;;1.97;;
67715;SDS011;54508;43.238;25.306;2022-12-11T09:15:18;3.38;;;1.70;;
67715;SDS011;54508;43.238;25.306;2022-12-11T09:17:44;4.57;;;2.25;;
67715;SDS011;54508;43.238;25.306;2022-12-11T09:20:10;4.67;;;2.10;;
67715;SDS011;54508;43.238;25.306;2022-12-11T09:22:35;4.45;;;2.13;;
67715;SDS011;54508;43.238;25.306;2022-12-11T09:25:01;3.30;;;2.00;;
67715;SDS011;54508;43.238;25.306;2022-12-11T09:27:26;4.20;;;2.17;;
67715;SDS011;54508;43.238;25.306;2022-12-11T09:29:53;4.65;;;2.28;;
67715;SDS011;54508;43.238;25.306;2022-12-11T09:32:18;3.97;;;2.03;;
67715;SDS011;54508;43.238;25.306;2022-12-11T09:34:44;2.70;;;1.95;;
67715;SDS011;54508;43.238;25.306;2022-12-11T09:37:09;3.00;;;1.90;;
67715;SDS011;54508;43.238;25.306;2022-12-11T09:39:35;4.43;;;2.38;;
67715;SDS011;54508;43.238;25.306;2022-12-11T09:44:48;5.25;;;2.38;;
67715;SDS011;54508;43.238;25.306;2022-12-11T09:47:20;5.82;;;2.55;;
67715;SDS011;54508;43.238;25.306;2022-12-11T09:50:04;3.47;;;2.10;;
67715;SDS011;54508;43.238;25.306;2022-12-11T09:55:22;3.47;;;2.30;;
67715;SDS011;54508;43.238;25.306;2022-12-11T10:00:59;3.55;;;2.42;;
67715;SDS011;54508;43.238;25.306;2022-12-11T10:03:51;4.53;;;2.63;;
67715;SDS011;54508;43.238;25.306;2022-12-11T10:07:04;4.43;;;2.50;;
67715;SDS011;54508;43.238;25.306;2022-12-11T10:15:18;4.93;;;3.13;;
67715;SDS011;54508;43.238;25.306;2022-12-11T10:18:11;5.45;;;3.15;;
67715;SDS011;54508;43.238;25.306;2022-12-11T10:20:40;4.15;;;3.00;;
67715;SDS011;54508;43.238;25.306;2022-12-11T10:23:17;5.05;;;3.40;;
67715;SDS011;54508;43.238;25.306;2022-12-11T10:25:53;5.47;;;3.67;;
67715;SDS011;54508;43.238;25.306;2022-12-11T10:28:26;4.78;;;3.03;;
67715;SDS011;54508;43.238;25.306;2022-12-11T10:33:30;3.83;;;2.60;;
67715;SDS011;54508;43.238;25.306;2022-12-11T10:36:00;8.10;;;3.10;;
67715;SDS011;54508;43.238;25.306;2022-12-11T10:38:27;5.20;;;3.30;;
67715;SDS011;54508;43.238;25.306;2022-12-11T10:41:04;3.47;;;2.85;;
67715;SDS011;54508;43.238;25.306;2022-12-11T10:43:44;4.68;;;3.25;;
67715;SDS011;54508;43.238;25.306;2022-12-11T10:48:44;6.18;;;3.20;;
67715;SDS011;54508;43.238;25.306;2022-12-11T10:51:11;5.68;;;3.33;;
67715;SDS011;54508;43.238;25.306;2022-12-11T10:53:36;6.67;;;3.30;;
67715;SDS011;54508;43.238;25.306;2022-12-11T10:56:04;5.00;;;3.28;;
67715;SDS011;54508;43.238;25.306;2022-12-11T10:58:30;4.78;;;3.10;;
67715;SDS011;54508;43.238;25.306;2022-12-11T11:03:34;4.22;;;3.20;;
67715;SDS011;54508;43.238;25.306;2022-12-11T11:06:05;3.70;;;3.17;;
67715;SDS011;54508;43.238;25.306;2022-12-11T11:08:43;5.20;;;3.55;;
67715;SDS011;54508;43.238;25.306;2022-12-11T11:13:46;4.27;;;2.97;;
67715;SDS011;54508;43.238;25.306;2022-12-11T11:16:12;4.63;;;3.28;;
67715;SDS011;54508;43.238;25.306;2022-12-11T11:18:40;5.38;;;3.47;;
67715;SDS011;54508;43.238;25.306;2022-12-11T11:21:06;4.80;;;3.38;;
67715;SDS011;54508;43.238;25.306;2022-12-11T11:23:40;5.18;;;3.17;;
67715;SDS011;54508;43.238;25.306;2022-12-11T11:26:06;5.67;;;3.40;;
67715;SDS011;54508;43.238;25.306;2022-12-11T11:28:36;4.63;;;3.45;;
67715;SDS011;54508;43.238;25.306;2022-12-11T11:31:13;5.75;;;3.42;;
67715;SDS011;54508;43.238;25.306;2022-12-11T11:36:20;4.55;;;3.20;;
67715;SDS011;54508;43.238;25.306;2022-12-11T11:41:36;4.72;;;3.72;;
67715;SDS011;54508;43.238;25.306;2022-12-11T11:44:09;6.95;;;3.70;;
67715;SDS011;54508;43.238;25.306;2022-12-11T11:46:46;5.00;;;3.13;;
67715;SDS011;54508;43.238;25.306;2022-12-11T11:49:20;3.97;;;3.05;;
67715;SDS011;54508;43.238;25.306;2022-12-11T11:54:49;4.10;;;3.20;;
67715;SDS011;54508;43.238;25.306;2022-12-11T11:57:22;8.15;;;3.40;;
67715;SDS011;54508;43.238;25.306;2022-12-11T11:59:53;5.03;;;3.40;;
67715;SDS011;54508;43.238;25.306;2022-12-11T12:02:20;3.88;;;2.95;;
67715;SDS011;54508;43.238;25.306;2022-12-11T12:04:46;4.57;;;3.10;;
67715;SDS011;54508;43.238;25.306;2022-12-11T12:15:55;4.05;;;3.05;;
67715;SDS011;54508;43.238;25.306;2022-12-11T12:26:50;4.60;;;2.78;;
67715;SDS011;54508;43.238;25.306;2022-12-11T12:32:27;5.90;;;3.20;;
67715;SDS011;54508;43.238;25.306;2022-12-11T12:37:53;4.18;;;2.90;;
67715;SDS011;54508;43.238;25.306;2022-12-11T12:40:26;4.38;;;2.80;;
67715;SDS011;54508;43.238;25.306;2022-12-11T12:48:24;3.47;;;2.60;;
67715;SDS011;54508;43.238;25.306;2022-12-11T12:50:51;3.75;;;2.88;;
67715;SDS011;54508;43.238;25.306;2022-12-11T12:53:18;4.38;;;2.67;;
67715;SDS011;54508;43.238;25.306;2022-12-11T12:55:45;3.28;;;2.33;;
67715;SDS011;54508;43.238;25.306;2022-12-11T12:58:23;3.50;;;2.38;;
67715;SDS011;54508;43.238;25.306;2022-12-11T13:00:50;3.65;;;2.75;;
67715;SDS011;54508;43.238;25.306;2022-12-11T13:03:18;3.97;;;3.10;;
67715;SDS011;54508;43.238;25.306;2022-12-11T13:06:01;2.85;;;2.55;;
67715;SDS011;54508;43.238;25.306;2022-12-11T13:08:38;6.38;;;3.17;;
67715;SDS011;54508;43.238;25.306;2022-12-11T13:11:05;4.28;;;2.65;;
67715;SDS011;54508;43.238;25.306;2022-12-11T13:13:40;3.58;;;2.80;;
67715;SDS011;54508;43.238;25.306;2022-12-11T13:16:21;5.20;;;2.50;;
67715;SDS011;54508;43.238;25.306;2022-12-11T13:18:48;5.03;;;2.85;;
67715;SDS011;54508;43.238;25.306;2022-12-11T13:26:36;5.82;;;3.00;;
67715;SDS011;54508;43.238;25.306;2022-12-11T13:29:02;2.87;;;2.33;;
67715;SDS011;54508;43.238;25.306;2022-12-11T13:31:34;5.03;;;2.72;;
67715;SDS011;54508;43.238;25.306;2022-12-11T13:34:22;3.60;;;2.35;;
67715;SDS011;54508;43.238;25.306;2022-12-11T13:36:47;5.40;;;2.60;;
67715;SDS011;54508;43.238;25.306;2022-12-11T13:39:23;3.90;;;2.50;;
67715;SDS011;54508;43.238;25.306;2022-12-11T13:41:52;3.28;;;2.45;;
67715;SDS011;54508;43.238;25.306;2022-12-11T13:44:23;3.17;;;2.20;;
67715;SDS011;54508;43.238;25.306;2022-12-11T13:47:03;4.25;;;2.40;;
67715;SDS011;54508;43.238;25.306;2022-12-11T13:49:34;3.20;;;2.60;;
67715;SDS011;54508;43.238;25.306;2022-12-11T13:52:01;3.35;;;2.38;;
67715;SDS011;54508;43.238;25.306;2022-12-11T13:54:31;4.65;;;2.88;;
67715;SDS011;54508;43.238;25.306;2022-12-11T13:59:48;3.45;;;2.53;;
67715;SDS011;54508;43.238;25.306;2022-12-11T14:04:44;3.45;;;2.60;;
67715;SDS011;54508;43.238;25.306;2022-12-11T14:07:10;3.90;;;2.55;;
67715;SDS011;54508;43.238;25.306;2022-12-11T14:09:36;4.37;;;2.83;;
67715;SDS011;54508;43.238;25.306;2022-12-11T14:12:04;3.55;;;2.60;;
67715;SDS011;54508;43.238;25.306;2022-12-11T14:14:42;3.00;;;2.70;;
67715;SDS011;54508;43.238;25.306;2022-12-11T14:17:12;4.28;;;2.70;;
67715;SDS011;54508;43.238;25.306;2022-12-11T14:19:39;3.63;;;2.55;;
67715;SDS011;54508;43.238;25.306;2022-12-11T14:22:15;4.32;;;2.78;;
67715;SDS011;54508;43.238;25.306;2022-12-11T14:27:47;4.05;;;2.97;;
67715;SDS011;54508;43.238;25.306;2022-12-11T14:30:19;4.05;;;3.10;;
67715;SDS011;54508;43.238;25.306;2022-12-11T14:32:45;4.63;;;3.08;;
67715;SDS011;54508;43.238;25.306;2022-12-11T14:35:23;3.75;;;2.95;;
67715;SDS011;54508;43.238;25.306;2022-12-11T14:37:55;5.60;;;2.83;;
67715;SDS011;54508;43.238;25.306;2022-12-11T14:40:23;3.90;;;2.47;;
67715;SDS011;54508;43.238;25.306;2022-12-11T14:42:54;3.47;;;2.78;;
67715;SDS011;54508;43.238;25.306;2022-12-11T14:47:58;6.15;;;2.88;;
67715;SDS011;54508;43.238;25.306;2022-12-11T14:52:59;3.73;;;3.10;;
67715;SDS011;54508;43.238;25.306;2022-12-11T14:55:28;3.53;;;2.58;;
67715;SDS011;54508;43.238;25.306;2022-12-11T14:57:56;3.50;;;2.63;;
67715;SDS011;54508;43.238;25.306;2022-12-11T15:03:00;4.13;;;3.17;;
67715;SDS011;54508;43.238;25.306;2022-12-11T15:05:30;4.60;;;2.80;;
67715;SDS011;54508;43.238;25.306;2022-12-11T15:08:01;3.30;;;2.80;;
67715;SDS011;54508;43.238;25.306;2022-12-11T15:10:32;4.13;;;3.10;;
67715;SDS011;54508;43.238;25.306;2022-12-11T15:13:00;3.35;;;2.50;;
67715;SDS011;54508;43.238;25.306;2022-12-11T15:15:27;4.60;;;2.78;;
67715;SDS011;54508;43.238;25.306;2022-12-11T15:17:52;6.15;;;3.13;;
67715;SDS011;54508;43.238;25.306;2022-12-11T15:20:36;4.97;;;3.07;;
67715;SDS011;54508;43.238;25.306;2022-12-11T15:23:01;4.90;;;2.80;;
67715;SDS011;54508;43.238;25.306;2022-12-11T15:25:27;4.43;;;2.70;;
67715;SDS011;54508;43.238;25.306;2022-12-11T15:27:55;4.07;;;2.90;;
67715;SDS011;54508;43.238;25.306;2022-12-11T15:33:04;3.75;;;2.88;;
67715;SDS011;54508;43.238;25.306;2022-12-11T15:35:29;4.78;;;2.78;;
67715;SDS011;54508;43.238;25.306;2022-12-11T15:37:56;4.75;;;3.30;;
67715;SDS011;54508;43.238;25.306;2022-12-11T15:40:22;5.85;;;3.53;;
67715;SDS011;54508;43.238;25.306;2022-12-11T15:42:48;5.07;;;3.35;;
67715;SDS011;54508;43.238;25.306;2022-12-11T15:45:15;6.18;;;3.05;;
67715;SDS011;54508;43.238;25.306;2022-12-11T15:47:48;5.00;;;3.15;;
67715;SDS011;54508;43.238;25.306;2022-12-11T15:52:45;5.68;;;3.30;;
67715;SDS011;54508;43.238;25.306;2022-12-11T15:55:10;3.97;;;3.23;;
67715;SDS011;54508;43.238;25.306;2022-12-11T15:57:36;4.88;;;3.58;;
67715;SDS011;54508;43.238;25.306;2022-12-11T16:00:03;4.63;;;3.60;;
67715;SDS011;54508;43.238;25.306;2022-12-11T16:02:30;4.88;;;3.90;;
67715;SDS011;54508;43.238;25.306;2022-12-11T16:04:56;5.13;;;3.70;;
67715;SDS011;54508;43.238;25.306;2022-12-11T16:07:22;7.07;;;3.87;;
67715;SDS011;54508;43.238;25.306;2022-12-11T16:09:49;5.40;;;3.33;;
67715;SDS011;54508;43.238;25.306;2022-12-11T16:12:14;7.30;;;4.30;;
67715;SDS011;54508;43.238;25.306;2022-12-11T16:14:40;7.68;;;4.10;;
67715;SDS011;54508;43.238;25.306;2022-12-11T16:17:07;5.78;;;4.13;;
67715;SDS011;54508;43.238;25.306;2022-12-11T16:19:34;8.87;;;4.00;;
67715;SDS011;54508;43.238;25.306;2022-12-11T16:22:00;4.70;;;3.72;;
67715;SDS011;54508;43.238;25.306;2022-12-11T16:24:26;7.30;;;4.00;;
67715;SDS011;54508;43.238;25.306;2022-12-11T16:26:51;5.75;;;3.85;;
67715;SDS011;54508;43.238;25.306;2022-12-11T16:29:17;6.87;;;3.67;;
67715;SDS011;54508;43.238;25.306;2022-12-11T16:31:42;5.78;;;3.90;;
67715;SDS011;54508;43.238;25.306;2022-12-11T16:34:08;7.03;;;3.77;;
67715;SDS011;54508;43.238;25.306;2022-12-11T16:36:33;4.63;;;3.53;;